Time;durP1;ratioP1;P1;durP2;ratioP2;P2;SDS_P1;SDS_P2;PMS_P1;PMS_P2;Temp;Humidity;BMP_temperature;BMP_pressure;BME280_temperature;BME280_humidity;BME280_pressure;Samples;Min_cycle;Max_cycle;Signal;HPM_P1;HPM_P2
2023/12/27 00:00:49;;;;;;;3.53;1.83;;;;;;;12.05;100.00;101685.84;2080952;28;21085;-74
2023/12/27 00:01:49;;;;;;;3.20;1.57;;;;;;;11.39;100.00;101587.47;2080883;28;20185;-74
2023/12/27 00:02:50;;;;;;;4.53;1.70;;;;;;;12.14;100.00;101705.56;2080740;28;20597;-74
2023/12/27 00:03:50;;;;;;;4.53;2.00;;;;;;;12.22;100.00;101712.59;2081162;28;20209;-74
2023/12/27 00:04:51;;;;;;;3.73;1.67;;;;;;;12.20;100.00;101718.56;2080732;28;20294;-74
2023/12/27 00:05:51;;;;;;;3.73;1.63;;;;;;;12.12;100.00;101721.84;2081039;28;20201;-74
2023/12/27 00:06:53;;;;;;;2.73;1.57;;;;;;;11.38;100.00;101600.53;2079460;28;20193;-75
2023/12/27 00:07:53;;;;;;;2.53;1.37;;;;;;;11.86;100.00;101673.38;2080072;28;20223;-75
2023/12/27 00:08:54;;;;;;;7.27;1.90;;;;;;;12.08;100.00;101708.00;2080561;28;21033;-74
2023/12/27 00:09:54;;;;;;;5.43;1.90;;;;;;;12.03;100.00;101713.22;2079444;28;20192;-74
2023/12/27 00:10:55;;;;;;;4.37;1.63;;;;;;;12.08;100.00;101726.66;2080036;28;20263;-74
2023/12/27 00:11:55;;;;;;;4.30;1.90;;;;;;;11.96;100.00;101705.78;2080774;28;20202;-74
2023/12/27 00:12:56;;;;;;;4.43;1.80;;;;;;;12.10;100.00;101722.25;2080075;28;20259;-74
2023/12/27 00:13:56;;;;;;;3.83;1.37;;;;;;;12.00;100.00;101712.06;2080474;28;20177;-74
2023/12/27 00:14:57;;;;;;;3.17;1.90;;;;;;;11.51;100.00;101625.78;2080393;28;20320;-74
2023/12/27 00:15:57;;;;;;;4.20;1.63;;;;;;;11.95;100.00;101700.66;2080726;28;20191;-75
2023/12/27 00:16:58;;;;;;;4.07;1.80;;;;;;;12.06;100.00;101727.09;2080028;28;20185;-74
2023/12/27 00:17:58;;;;;;;5.93;2.13;;;;;;;12.00;100.00;101728.75;2080655;28;20177;-74
2023/12/27 00:18:59;;;;;;;5.23;1.80;;;;;;;12.05;100.00;101725.50;2080133;28;20184;-74
2023/12/27 00:20:00;;;;;;;4.07;1.73;;;;;;;11.69;100.00;101679.16;2080696;28;20198;-74
2023/12/27 00:21:00;;;;;;;3.47;1.20;;;;;;;11.68;100.00;101691.47;2080272;28;20185;-74
2023/12/27 00:22:01;;;;;;;4.17;1.60;;;;;;;12.01;100.00;101749.00;2079369;28;20216;-74
2023/12/27 00:23:02;;;;;;;3.47;1.80;;;;;;;12.00;100.00;101745.41;2080305;28;20265;-74
2023/12/27 00:24:02;;;;;;;3.07;1.50;;;;;;;11.97;100.00;101742.69;2080126;28;20197;-74
2023/12/27 00:25:03;;;;;;;4.97;1.80;;;;;;;11.94;100.00;101743.53;2080282;28;20445;-74
2023/12/27 00:26:04;;;;;;;4.47;1.47;;;;;;;11.93;100.00;101748.28;2080094;28;20567;-74
2023/12/27 00:27:04;;;;;;;4.27;1.90;;;;;;;11.80;100.00;101747.25;2078731;28;20182;-74
2023/12/27 00:28:05;;;;;;;8.40;2.17;;;;;;;11.83;100.00;101759.53;2080034;28;20208;-74
2023/12/27 00:29:05;;;;;;;2.50;1.40;;;;;;;11.82;100.00;101758.72;2080111;28;20247;-74
2023/12/27 00:30:06;;;;;;;5.90;1.60;;;;;;;11.81;100.00;101756.34;2080107;28;20185;-74
2023/12/27 00:31:07;;;;;;;6.37;1.87;;;;;;;11.77;100.00;101759.19;2080229;28;20189;-75
2023/12/27 00:32:09;;;;;;;4.97;1.40;;;;;;;11.62;100.00;101737.50;2080112;28;20212;-74
2023/12/27 00:33:10;;;;;;;2.33;1.47;;;;;;;11.77;100.00;101761.97;2080252;28;20550;-74
2023/12/27 00:34:10;;;;;;;4.53;1.73;;;;;;;11.77;100.00;101767.50;2079968;28;20463;-74
2023/12/27 00:35:11;;;;;;;6.20;1.93;;;;;;;11.73;100.00;101761.19;2079401;28;20180;-74
2023/12/27 00:36:12;;;;;;;3.97;1.70;;;;;;;11.20;100.00;101672.09;2079390;28;20181;-74
2023/12/27 00:37:12;;;;;;;4.57;2.07;;;;;;;11.75;100.00;101756.03;2079786;28;20193;-74
2023/12/27 00:38:13;;;;;;;4.47;1.50;;;;;;;11.79;100.00;101762.31;2080386;28;20432;-74
2023/12/27 00:39:14;;;;;;;5.47;1.70;;;;;;;11.61;100.00;101747.06;2079102;28;20197;-74
2023/12/27 00:40:16;;;;;;;4.00;2.57;;;;;;;11.76;100.00;101757.59;2080026;28;20195;-74
2023/12/27 00:41:16;;;;;;;2.73;1.57;;;;;;;11.90;100.00;101770.53;2079805;28;20442;-74
2023/12/27 00:42:17;;;;;;;3.57;1.57;;;;;;;11.85;100.00;101757.91;2079986;28;20433;-74
2023/12/27 00:43:17;;;;;;;3.93;1.73;;;;;;;11.76;100.00;101745.69;2080161;28;20182;-74
2023/12/27 00:44:18;;;;;;;5.57;2.20;;;;;;;11.65;100.00;101733.91;2079336;28;20564;-74
2023/12/27 00:45:19;;;;;;;3.03;1.50;;;;;;;11.89;100.00;101786.41;2080344;28;20179;-74
2023/12/27 00:46:19;;;;;;;2.57;1.33;;;;;;;11.12;100.00;101655.94;2080773;28;21818;-74
2023/12/27 00:47:20;;;;;;;7.03;2.10;;;;;;;12.02;100.00;101787.47;2079706;28;20319;-75
2023/12/27 00:48:20;;;;;;;5.77;2.13;;;;;;;11.83;100.00;101765.09;2079421;28;20334;-75
2023/12/27 00:49:22;;;;;;;3.33;1.70;;;;;;;11.92;100.00;101795.91;2079277;28;20197;-75
2023/12/27 00:50:22;;;;;;;4.87;1.90;;;;;;;11.89;100.00;101800.31;2080082;28;20200;-75
2023/12/27 00:51:22;;;;;;;3.60;1.73;;;;;;;11.87;100.00;101790.81;2080138;28;20447;-75
2023/12/27 00:52:23;;;;;;;5.03;1.67;;;;;;;10.67;100.00;101610.00;2079543;28;20194;-74
2023/12/27 00:53:23;;;;;;;4.00;1.77;;;;;;;11.85;100.00;101796.81;2079767;28;20189;-74
2023/12/27 00:54:24;;;;;;;5.57;1.93;;;;;;;11.85;100.00;101798.78;2080024;28;20192;-75
2023/12/27 00:55:24;;;;;;;3.23;1.30;;;;;;;11.88;100.00;101798.72;2079825;28;20204;-74
2023/12/27 00:56:25;;;;;;;7.27;1.63;;;;;;;11.33;100.00;101709.22;2080097;28;20249;-75
2023/12/27 00:57:25;;;;;;;3.23;1.80;;;;;;;11.90;100.00;101803.88;2078506;28;20197;-74
2023/12/27 00:58:26;;;;;;;4.10;1.70;;;;;;;11.91;100.00;101808.22;2080622;28;20195;-74
2023/12/27 00:59:26;;;;;;;5.37;1.80;;;;;;;11.88;100.00;101804.28;2079217;28;20216;-74
2023/12/27 01:00:27;;;;;;;6.83;1.90;;;;;;;11.86;100.00;101809.47;2079486;28;20192;-74
2023/12/27 01:01:30;;;;;;;4.53;1.77;;;;;;;11.57;100.00;101763.72;2079848;28;20196;-74
2023/12/27 01:02:30;;;;;;;3.57;1.67;;;;;;;11.87;100.00;101816.59;2079691;28;20191;-74
2023/12/27 01:03:31;;;;;;;4.03;1.83;;;;;;;11.51;100.00;101765.38;2079319;28;20440;-74
2023/12/27 01:04:33;;;;;;;3.70;1.83;;;;;;;11.87;100.00;101818.59;2079560;28;20180;-74
2023/12/27 01:05:33;;;;;;;4.30;1.67;;;;;;;11.52;100.00;101764.16;2080115;28;20215;-74
2023/12/27 01:06:34;;;;;;;3.97;2.10;;;;;;;11.83;100.00;101806.75;2080006;28;20436;-74
2023/12/27 01:07:34;;;;;;;4.67;1.70;;;;;;;11.87;100.00;101813.81;2078632;28;20208;-74
2023/12/27 01:08:35;;;;;;;3.83;2.00;;;;;;;11.59;100.00;101780.78;2079613;28;20213;-74
2023/12/27 01:09:35;;;;;;;2.83;1.57;;;;;;;11.85;100.00;101821.00;2080205;28;20712;-74
2023/12/27 01:10:36;;;;;;;3.20;1.70;;;;;;;11.79;100.00;101815.09;2080200;28;20252;-74
2023/12/27 01:11:37;;;;;;;3.37;1.77;;;;;;;11.63;100.00;101786.31;2079787;28;20227;-74
2023/12/27 01:12:37;;;;;;;3.27;1.97;;;;;;;11.64;100.00;101794.22;2079481;28;20192;-75
2023/12/27 01:13:37;;;;;;;3.50;1.77;;;;;;;11.59;100.00;101786.31;2079912;28;20188;-75
2023/12/27 01:14:38;;;;;;;4.10;1.90;;;;;;;11.12;100.00;101723.28;2078968;28;20250;-74
2023/12/27 01:15:38;;;;;;;4.20;1.80;;;;;;;11.70;100.00;101811.22;2079433;28;20177;-74
2023/12/27 01:16:39;;;;;;;2.93;1.93;;;;;;;11.26;100.00;101737.06;2079521;28;20188;-74
2023/12/27 01:17:40;;;;;;;2.80;1.43;;;;;;;11.76;100.00;101815.94;2079427;28;20194;-74
2023/12/27 01:18:40;;;;;;;4.27;1.93;;;;;;;11.72;100.00;101811.59;2080129;28;20181;-74
2023/12/27 01:19:40;;;;;;;4.00;2.07;;;;;;;11.75;100.00;101814.34;2079603;28;20197;-74
2023/12/27 01:20:41;;;;;;;6.00;2.00;;;;;;;11.77;100.00;101819.47;2079842;28;20192;-74
2023/12/27 01:21:41;;;;;;;5.03;1.97;;;;;;;11.78;100.00;101824.63;2078992;28;20193;-74
2023/12/27 01:22:42;;;;;;;2.77;1.67;;;;;;;11.66;100.00;101802.13;2079179;28;20555;-74
2023/12/27 01:23:43;;;;;;;4.17;1.80;;;;;;;11.53;100.00;101778.84;2079123;28;20561;-74
2023/12/27 01:24:43;;;;;;;3.37;1.80;;;;;;;11.44;100.00;101767.41;2079418;28;20205;-74
2023/12/27 01:25:44;;;;;;;5.40;1.90;;;;;;;11.83;100.00;101835.28;2080139;28;20202;-75
2023/12/27 01:26:44;;;;;;;2.93;1.70;;;;;;;11.82;100.00;101830.13;2079297;28;20217;-74
2023/12/27 01:27:46;;;;;;;3.17;1.80;;;;;;;11.79;100.00;101828.97;2079663;28;20243;-74
2023/12/27 01:28:46;;;;;;;5.20;1.90;;;;;;;10.77;100.00;101675.66;2079104;28;20291;-74
2023/12/27 01:29:47;;;;;;;3.13;1.67;;;;;;;11.49;100.00;101806.63;2079303;28;20440;-74
2023/12/27 01:30:47;;;;;;;2.57;1.57;;;;;;;11.68;100.00;101833.06;2079264;28;20326;-74
2023/12/27 01:31:48;;;;;;;3.67;2.10;;;;;;;10.89;100.00;101711.22;2079093;28;20181;-74
2023/12/27 01:32:48;;;;;;;3.23;1.70;;;;;;;11.67;100.00;101825.91;2079319;28;20176;-74
2023/12/27 01:33:49;;;;;;;4.13;2.23;;;;;;;11.62;100.00;101826.38;2079848;28;20187;-74
2023/12/27 01:34:49;;;;;;;5.00;2.23;;;;;;;11.59;100.00;101819.63;2080013;28;20192;-74
2023/12/27 01:35:50;;;;;;;6.17;1.97;;;;;;;11.54;100.00;101817.28;2079587;28;20188;-73
2023/12/27 01:36:50;;;;;;;3.87;1.90;;;;;;;11.51;100.00;101828.41;2078806;28;20184;-74
2023/12/27 01:37:51;;;;;;;3.60;2.27;;;;;;;10.95;100.00;101749.19;2079096;28;20185;-74
2023/12/27 01:38:51;;;;;;;4.87;2.23;;;;;;;11.48;100.00;101838.34;2079794;28;20181;-74
2023/12/27 01:39:52;;;;;;;4.20;2.17;;;;;;;11.44;100.00;101831.25;2079772;28;20185;-74
2023/12/27 01:40:52;;;;;;;4.50;1.77;;;;;;;11.16;100.00;101787.88;2079967;28;20296;-74
2023/12/27 01:41:53;;;;;;;3.40;1.83;;;;;;;11.44;100.00;101836.81;2080035;28;20244;-74
2023/12/27 01:42:53;;;;;;;4.77;2.00;;;;;;;11.36;100.00;101821.41;2079386;28;20177;-74
2023/12/27 01:43:54;;;;;;;4.00;2.20;;;;;;;11.43;100.00;101840.78;2079341;28;20185;-74
2023/12/27 01:44:54;;;;;;;4.77;2.17;;;;;;;11.36;100.00;101830.53;2079508;28;20471;-75
2023/12/27 01:45:55;;;;;;;2.50;1.80;;;;;;;11.36;100.00;101838.84;2079396;28;20185;-75
2023/12/27 01:46:56;;;;;;;3.80;2.10;;;;;;;10.59;100.00;101717.38;2078291;28;20193;-74
2023/12/27 01:47:57;;;;;;;6.17;2.10;;;;;;;11.42;100.00;101845.53;2078429;28;20228;-74
2023/12/27 01:48:58;;;;;;;2.60;1.60;;;;;;;10.99;100.00;101782.44;2079437;28;20458;-75
2023/12/27 01:49:59;;;;;;;3.17;1.70;;;;;;;11.36;100.00;101841.63;2080146;28;20539;-75
2023/12/27 01:51:01;;;;;;;5.03;2.20;;;;;;;11.32;100.00;101835.31;2079362;28;20450;-74
2023/12/27 01:52:02;;;;;;;5.43;2.43;;;;;;;10.99;100.00;101793.53;2079871;28;20193;-75
2023/12/27 01:53:02;;;;;;;3.97;1.87;;;;;;;11.28;100.00;101839.31;2078742;28;20828;-75
2023/12/27 01:54:03;;;;;;;5.03;2.17;;;;;;;10.86;100.00;101782.16;2079532;28;20475;-74
2023/12/27 01:55:05;;;;;;;4.97;2.20;;;;;;;11.13;100.00;101824.75;2079710;28;20279;-74
2023/12/27 01:56:06;;;;;;;4.43;1.73;;;;;;;10.94;100.00;101785.66;2079662;28;20177;-75
2023/12/27 01:57:07;;;;;;;4.23;2.10;;;;;;;11.35;100.00;101853.13;2078741;28;20816;-74
2023/12/27 01:58:10;;;;;;;6.77;1.90;;;;;;;11.48;100.00;101857.00;2079453;28;20416;-75
2023/12/27 01:59:12;;;;;;;6.27;2.03;;;;;;;11.51;100.00;101848.66;2079313;28;20211;-75
2023/12/27 02:00:14;;;;;;;2.50;1.47;;;;;;;11.48;100.00;101857.78;2079367;28;20588;-74
2023/12/27 02:01:15;;;;;;;4.83;1.83;;;;;;;11.46;100.00;101859.38;2078715;28;20501;-74
2023/12/27 02:02:15;;;;;;;5.43;2.07;;;;;;;11.24;100.00;101824.69;2079842;28;20473;-74
2023/12/27 02:03:17;;;;;;;3.87;1.67;;;;;;;10.93;100.00;101781.31;2077947;28;20196;-74
2023/12/27 02:04:17;;;;;;;3.40;1.73;;;;;;;11.50;100.00;101860.16;2078930;28;20189;-74
2023/12/27 02:05:18;;;;;;;4.00;2.13;;;;;;;11.46;100.00;101865.75;2078919;28;20431;-74
2023/12/27 02:06:19;;;;;;;4.20;1.97;;;;;;;10.57;100.00;101736.41;2079555;28;20616;-74
2023/12/27 02:07:19;;;;;;;6.40;2.40;;;;;;;10.94;100.00;101786.47;2078332;28;20216;-75
2023/12/27 02:08:21;;;;;;;3.87;2.10;;;;;;;11.38;100.00;101866.97;2079817;28;20432;-74
2023/12/27 02:09:22;;;;;;;5.10;2.10;;;;;;;10.69;100.00;101752.56;2079023;28;20217;-75
2023/12/27 02:10:23;;;;;;;8.33;1.97;;;;;;;11.07;100.00;101801.41;2079692;28;20450;-75
2023/12/27 02:11:23;;;;;;;3.53;1.80;;;;;;;11.42;100.00;101861.44;2078646;28;20945;-75
2023/12/27 02:12:29;;;;;;;4.60;1.90;;;;;;;11.19;100.00;101830.66;2079140;28;20194;-75
2023/12/27 02:13:29;;;;;;;2.50;1.70;;;;;;;11.23;100.00;101832.19;2078571;28;20200;-75
2023/12/27 02:14:30;;;;;;;4.87;1.90;;;;;;;11.49;100.00;101858.59;2079122;28;20455;-74
2023/12/27 02:15:30;;;;;;;2.97;1.63;;;;;;;11.39;100.00;101846.38;2079006;28;20456;-75
2023/12/27 02:16:31;;;;;;;6.47;2.00;;;;;;;11.55;100.00;101860.53;2079135;28;20279;-74
2023/12/27 02:17:32;;;;;;;4.87;2.00;;;;;;;11.55;100.00;101870.81;2078085;28;20181;-75
2023/12/27 02:18:34;;;;;;;5.80;1.80;;;;;;;11.52;100.00;101860.56;2078803;28;20180;-74
2023/12/27 02:19:34;;;;;;;3.80;2.03;;;;;;;11.42;100.00;101847.53;2078394;28;20431;-75
2023/12/27 02:20:35;;;;;;;4.00;1.67;;;;;;;11.53;100.00;101842.69;2078656;28;20883;-75
2023/12/27 02:21:36;;;;;;;5.40;2.40;;;;;;;11.55;100.00;101862.50;2079263;28;20219;-74
2023/12/27 02:22:39;;;;;;;4.07;1.97;;;;;;;11.55;100.00;101860.53;2079042;28;20440;-74
2023/12/27 02:23:42;;;;;;;5.13;2.30;;;;;;;11.45;100.00;101855.03;2078961;28;20182;-74
2023/12/27 02:24:42;;;;;;;3.67;2.03;;;;;;;11.55;100.00;101863.28;2077426;28;20415;-74
2023/12/27 02:25:44;;;;;;;4.60;2.00;;;;;;;11.44;100.00;101848.72;2078843;28;20423;-75
2023/12/27 02:26:45;;;;;;;5.00;2.40;;;;;;;11.55;100.00;101868.03;2078331;28;20173;-74
2023/12/27 02:27:46;;;;;;;4.97;1.80;;;;;;;11.44;100.00;101848.72;2079374;28;20551;-74
2023/12/27 02:28:46;;;;;;;4.43;2.30;;;;;;;11.41;100.00;101849.53;2079257;28;20487;-74
2023/12/27 02:29:47;;;;;;;4.90;2.37;;;;;;;11.14;100.00;101795.81;2079462;28;20188;-74
2023/12/27 02:30:47;;;;;;;3.50;1.93;;;;;;;11.41;100.00;101857.84;2079617;28;20189;-75
2023/12/27 02:31:48;;;;;;;3.73;1.97;;;;;;;11.48;100.00;101862.56;2079465;28;20214;-74
2023/12/27 02:32:49;;;;;;;5.27;1.90;;;;;;;11.51;100.00;101859.75;2079755;28;20184;-74
2023/12/27 02:33:49;;;;;;;3.30;2.10;;;;;;;11.51;100.00;101862.53;2078611;28;20184;-74
2023/12/27 02:34:50;;;;;;;5.77;2.40;;;;;;;10.88;100.00;101774.22;2079057;28;20511;-74
2023/12/27 02:35:50;;;;;;;5.13;2.03;;;;;;;11.41;100.00;101863.41;2079515;28;20193;-75
2023/12/27 02:36:51;;;;;;;4.47;2.30;;;;;;;11.14;100.00;101820.78;2078468;28;20185;-74
2023/12/27 02:37:52;;;;;;;5.77;2.10;;;;;;;11.42;100.00;101862.19;2078996;28;20181;-75
2023/12/27 02:38:52;;;;;;;3.53;1.97;;;;;;;11.07;100.00;101806.19;2077781;28;20669;-74
2023/12/27 02:39:53;;;;;;;5.30;2.33;;;;;;;11.36;100.00;101849.16;2078927;28;20667;-74
2023/12/27 02:40:55;;;;;;;4.23;2.07;;;;;;;11.50;100.00;101860.97;2070687;28;20222;-74
2023/12/27 02:41:56;;;;;;;3.60;2.00;;;;;;;11.51;100.00;101861.72;2079250;28;20177;-74
2023/12/27 02:42:56;;;;;;;4.63;2.70;;;;;;;11.48;100.00;101868.88;2079299;28;20456;-75
2023/12/27 02:43:57;;;;;;;5.97;2.37;;;;;;;11.48;100.00;101879.22;2078917;28;20212;-74
2023/12/27 02:44:57;;;;;;;5.13;2.20;;;;;;;10.65;100.00;101746.25;2078356;28;20200;-74
2023/12/27 02:45:58;;;;;;;5.27;1.90;;;;;;;11.43;100.00;101874.88;2078484;28;20266;-74
2023/12/27 02:47:01;;;;;;;4.37;1.60;;;;;;;11.33;100.00;101850.00;2078419;28;20798;-74
2023/12/27 02:48:01;;;;;;;3.67;1.97;;;;;;;11.45;100.00;101871.69;2079202;28;20211;-74
2023/12/27 02:49:02;;;;;;;3.53;1.70;;;;;;;11.45;100.00;101877.25;2078789;28;21005;-74
2023/12/27 02:50:03;;;;;;;4.07;2.20;;;;;;;11.39;100.00;101873.34;2079426;28;20177;-74
2023/12/27 02:51:03;;;;;;;4.50;2.00;;;;;;;11.39;100.00;101867.78;2079292;28;20227;-75
2023/12/27 02:52:04;;;;;;;3.53;1.93;;;;;;;10.91;100.00;101803.91;2079854;28;20225;-74
2023/12/27 02:53:04;;;;;;;4.30;1.80;;;;;;;10.98;100.00;101814.16;2079367;28;20191;-74
2023/12/27 02:54:05;;;;;;;4.03;1.70;;;;;;;11.37;100.00;101890.38;2079497;28;20651;-74
2023/12/27 02:55:06;;;;;;;3.37;1.90;;;;;;;11.41;100.00;101888.38;2079106;28;20260;-74
2023/12/27 02:56:08;;;;;;;5.17;2.20;;;;;;;10.85;100.00;101824.94;2078770;28;20215;-74
2023/12/27 02:57:09;;;;;;;5.17;1.70;;;;;;;11.29;100.00;101886.09;2078829;28;20192;-74
2023/12/27 02:58:09;;;;;;;4.10;2.10;;;;;;;11.29;100.00;101888.88;2078275;28;20424;-74
2023/12/27 02:59:10;;;;;;;4.43;1.60;;;;;;;11.20;100.00;101885.75;2079479;28;20728;-75
2023/12/27 03:00:11;;;;;;;4.17;1.83;;;;;;;11.14;100.00;101887.38;2077905;28;20177;-75
2023/12/27 03:01:11;;;;;;;3.43;1.80;;;;;;;11.17;100.00;101892.09;2078900;28;20188;-74
2023/12/27 03:02:12;;;;;;;5.20;2.00;;;;;;;10.76;100.00;101823.81;2079209;28;20467;-74
2023/12/27 03:03:12;;;;;;;4.60;1.90;;;;;;;11.16;100.00;101898.06;2078238;28;20197;-74
2023/12/27 03:04:15;;;;;;;5.57;1.93;;;;;;;11.12;100.00;101902.84;2078445;28;20201;-74
2023/12/27 03:05:15;;;;;;;4.00;2.00;;;;;;;10.83;100.00;101874.47;2078376;28;20195;-75
2023/12/27 03:06:16;;;;;;;2.57;1.80;;;;;;;11.08;100.00;101904.84;2079554;28;20522;-74
2023/12/27 03:07:16;;;;;;;3.77;1.80;;;;;;;11.04;100.00;101892.97;2078516;28;20180;-74
2023/12/27 03:08:17;;;;;;;7.70;2.07;;;;;;;11.09;100.00;101912.78;2079587;28;20540;-74
2023/12/27 03:09:18;;;;;;;6.77;2.10;;;;;;;11.11;100.00;101904.81;2079707;28;20215;-75
2023/12/27 03:10:18;;;;;;;4.03;1.90;;;;;;;10.94;100.00;101877.19;2078804;28;20223;-75
2023/12/27 03:11:19;;;;;;;3.67;1.73;;;;;;;10.38;100.00;101797.88;2078349;28;20267;-74
2023/12/27 03:12:20;;;;;;;4.83;2.17;;;;;;;10.69;100.00;101857.09;2078636;28;20285;-75
2023/12/27 03:13:20;;;;;;;4.43;1.80;;;;;;;11.00;100.00;101906.06;2079084;28;20432;-75
2023/12/27 03:14:21;;;;;;;3.93;2.30;;;;;;;10.67;100.00;101849.19;2079189;28;20590;-74
2023/12/27 03:15:21;;;;;;;3.67;2.20;;;;;;;11.13;100.00;101913.53;2079006;28;20564;-74
2023/12/27 03:16:22;;;;;;;5.47;2.20;;;;;;;11.12;100.00;101905.63;2078176;28;20185;-74
2023/12/27 03:17:22;;;;;;;4.40;2.17;;;;;;;11.12;100.00;101913.94;2078485;28;20188;-75
2023/12/27 03:18:23;;;;;;;4.50;1.97;;;;;;;10.79;100.00;101879.25;2078941;28;20181;-74
2023/12/27 03:19:25;;;;;;;2.27;1.70;;;;;;;11.10;100.00;101913.56;2079249;28;20212;-75
2023/12/27 03:20:25;;;;;;;4.83;2.03;;;;;;;11.13;100.00;101919.06;2077677;28;20223;-74
2023/12/27 03:21:26;;;;;;;4.23;2.03;;;;;;;10.93;100.00;101881.16;2079128;28;20432;-74
2023/12/27 03:22:26;;;;;;;4.67;2.23;;;;;;;10.28;100.00;101779.31;2079147;28;20193;-74
2023/12/27 03:23:27;;;;;;;4.30;2.03;;;;;;;10.73;100.00;101844.81;2079080;28;20541;-75
2023/12/27 03:24:27;;;;;;;4.20;2.10;;;;;;;10.56;100.00;101812.41;2079134;28;20611;-74
2023/12/27 03:25:28;;;;;;;7.13;2.43;;;;;;;11.19;100.00;101911.94;2078431;28;20686;-74
2023/12/27 03:26:28;;;;;;;3.60;2.40;;;;;;;11.08;100.00;101902.88;2079103;28;20185;-74
2023/12/27 03:27:29;;;;;;;5.03;2.30;;;;;;;11.12;100.00;101902.84;2078812;28;20231;-74
2023/12/27 03:28:30;;;;;;;4.63;2.33;;;;;;;11.21;100.00;101917.06;2079415;28;20193;-74
2023/12/27 03:29:30;;;;;;;3.90;1.87;;;;;;;11.20;100.00;101919.06;2078672;28;20181;-74
2023/12/27 03:30:31;;;;;;;4.63;1.87;;;;;;;11.10;100.00;101891.34;2079254;28;20185;-74
2023/12/27 03:31:32;;;;;;;6.77;2.60;;;;;;;10.98;100.00;101886.28;2077807;28;20248;-74
2023/12/27 03:32:32;;;;;;;5.73;2.00;;;;;;;11.26;100.00;101922.16;2078546;28;20428;-74
2023/12/27 03:33:33;;;;;;;5.03;2.40;;;;;;;11.24;100.00;101919.81;2078123;28;20184;-74
2023/12/27 03:34:33;;;;;;;5.23;2.23;;;;;;;10.90;100.00;101871.66;2079415;28;20216;-74
2023/12/27 03:35:34;;;;;;;4.40;1.80;;;;;;;10.75;100.00;101844.41;2078668;28;20662;-75
2023/12/27 03:36:34;;;;;;;5.63;2.13;;;;;;;11.14;100.00;101919.88;2079233;28;20191;-74
2023/12/27 03:37:35;;;;;;;6.00;2.40;;;;;;;10.78;100.00;101869.34;2077825;28;20185;-74
2023/12/27 03:38:35;;;;;;;6.00;2.50;;;;;;;11.22;100.00;101932.53;2079044;28;20185;-74
2023/12/27 03:39:36;;;;;;;4.67;2.30;;;;;;;11.19;100.00;101927.78;2079361;28;20282;-74
2023/12/27 03:40:36;;;;;;;3.63;2.27;;;;;;;11.18;100.00;101932.53;2079188;28;20183;-75
2023/12/27 03:41:37;;;;;;;4.47;1.80;;;;;;;11.15;100.00;101933.34;2079168;28;20180;-74
2023/12/27 03:42:37;;;;;;;4.07;2.20;;;;;;;11.25;100.00;101929.72;2079624;28;20539;-75
2023/12/27 03:43:38;;;;;;;5.10;2.30;;;;;;;11.23;100.00;101934.88;2079159;28;20553;-74
2023/12/27 03:44:39;;;;;;;3.77;2.17;;;;;;;11.23;100.00;101928.56;2079509;28;20631;-74
2023/12/27 03:45:39;;;;;;;4.93;2.30;;;;;;;11.27;100.00;101932.09;2078716;28;20193;-74
2023/12/27 03:46:40;;;;;;;5.03;2.60;;;;;;;10.97;100.00;101904.13;2078223;28;20611;-75
2023/12/27 03:47:41;;;;;;;3.83;1.80;;;;;;;11.28;100.00;101942.00;2078614;28;20263;-74
2023/12/27 03:48:41;;;;;;;2.60;1.70;;;;;;;11.29;100.00;101938.03;2078676;28;20185;-74
2023/12/27 03:49:41;;;;;;;3.53;2.00;;;;;;;10.69;100.00;101832.16;2078826;28;20209;-74
2023/12/27 03:50:42;;;;;;;4.03;2.23;;;;;;;11.29;100.00;101938.03;2078148;28;20557;-75
2023/12/27 03:51:42;;;;;;;3.63;2.00;;;;;;;11.37;100.00;101945.13;2078660;28;20585;-74
2023/12/27 03:52:43;;;;;;;4.87;2.07;;;;;;;10.75;100.00;101864.59;2079205;28;20572;-74
2023/12/27 03:53:44;;;;;;;2.57;1.70;;;;;;;11.39;100.00;101948.28;2078142;28;20189;-74
2023/12/27 03:54:44;;;;;;;3.23;1.73;;;;;;;11.24;100.00;101921.81;2078186;28;20223;-75
2023/12/27 03:55:45;;;;;;;7.87;2.43;;;;;;;10.97;100.00;101896.56;2079165;28;20200;-74
2023/12/27 03:56:45;;;;;;;4.10;1.80;;;;;;;11.27;100.00;101946.75;2078279;28;20198;-74
2023/12/27 03:57:46;;;;;;;4.67;2.53;;;;;;;11.23;100.00;101951.53;2079682;28;20185;-74
2023/12/27 03:58:46;;;;;;;4.63;2.50;;;;;;;10.69;100.00;101869.00;2080060;28;20648;-74
2023/12/27 03:59:47;;;;;;;4.97;2.03;;;;;;;11.21;100.00;101956.69;2081008;28;20181;-74
2023/12/27 04:00:47;;;;;;;3.80;1.73;;;;;;;11.22;100.00;101952.72;2080406;28;20254;-74
2023/12/27 04:01:48;;;;;;;4.50;2.33;;;;;;;11.05;100.00;101931.41;2080261;28;20189;-74
2023/12/27 04:02:48;;;;;;;5.07;2.10;;;;;;;11.20;100.00;101943.22;2080034;28;20189;-74
2023/12/27 04:03:49;;;;;;;5.70;2.20;;;;;;;10.73;100.00;101877.28;2079534;28;20243;-74
2023/12/27 04:04:49;;;;;;;3.17;1.97;;;;;;;10.83;100.00;101887.53;2079677;28;20280;-74
2023/12/27 04:05:50;;;;;;;6.73;2.40;;;;;;;11.27;100.00;101957.84;2080425;28;20231;-74
2023/12/27 04:06:53;;;;;;;3.33;1.87;;;;;;;10.30;100.00;101817.69;2079971;28;20195;-75
2023/12/27 04:07:54;;;;;;;4.40;2.40;;;;;;;11.24;100.00;101957.88;2080488;28;20238;-74
2023/12/27 04:08:54;;;;;;;7.23;2.33;;;;;;;11.25;100.00;101962.22;2080786;28;21018;-74
2023/12/27 04:09:55;;;;;;;5.83;2.13;;;;;;;11.25;100.00;101974.13;2080000;28;20908;-74
2023/12/27 04:10:55;;;;;;;3.87;2.00;;;;;;;11.24;100.00;101975.31;2080139;28;20276;-74
2023/12/27 04:11:56;;;;;;;5.53;2.50;;;;;;;11.31;100.00;101980.03;2079670;28;20659;-74
2023/12/27 04:12:58;;;;;;;3.77;2.10;;;;;;;11.30;100.00;101981.22;2071768;28;20217;-74
2023/12/27 04:13:59;;;;;;;3.70;1.90;;;;;;;11.11;100.00;101952.00;2079680;28;20200;-74
2023/12/27 04:14:59;;;;;;;4.17;1.73;;;;;;;11.24;100.00;101972.56;2080693;28;20964;-75
2023/12/27 04:16:00;;;;;;;6.67;2.53;;;;;;;11.25;100.00;101985.22;2080074;28;20217;-74
2023/12/27 04:17:00;;;;;;;4.00;1.87;;;;;;;10.98;100.00;101948.09;2080187;28;20255;-74
2023/12/27 04:18:01;;;;;;;4.13;2.13;;;;;;;11.23;100.00;101982.03;2079432;28;20210;-75
2023/12/27 04:19:01;;;;;;;4.27;2.10;;;;;;;11.21;100.00;101980.88;2080347;28;20641;-74
2023/12/27 04:20:03;;;;;;;5.17;2.17;;;;;;;10.55;100.00;101884.91;2080137;28;20287;-75
2023/12/27 04:21:03;;;;;;;4.93;2.53;;;;;;;10.71;100.00;101921.28;2079879;28;20299;-74
2023/12/27 04:22:05;;;;;;;3.90;2.17;;;;;;;10.22;100.00;101844.63;2079874;28;20437;-74
2023/12/27 04:23:05;;;;;;;4.30;2.00;;;;;;;10.53;100.00;101892.81;2079794;28;20674;-75
2023/12/27 04:24:06;;;;;;;3.63;2.10;;;;;;;10.62;100.00;101901.50;2079688;28;20795;-74
2023/12/27 04:25:08;;;;;;;4.77;2.00;;;;;;;11.16;100.00;101992.38;2080836;28;20599;-74
2023/12/27 04:26:08;;;;;;;5.30;2.20;;;;;;;10.72;100.00;101939.50;2080177;28;20581;-74
2023/12/27 04:27:09;;;;;;;4.50;2.07;;;;;;;11.11;100.00;102001.13;2079871;28;20453;-75
2023/12/27 04:28:10;;;;;;;5.20;2.43;;;;;;;10.61;100.00;101928.44;2080190;28;20999;-75
2023/12/27 04:29:10;;;;;;;5.57;2.20;;;;;;;10.79;100.00;101945.81;2079991;28;20559;-74
2023/12/27 04:30:11;;;;;;;5.30;2.07;;;;;;;10.87;100.00;101955.66;2079864;28;20329;-75
2023/12/27 04:31:11;;;;;;;3.13;1.90;;;;;;;10.79;100.00;101945.00;2080329;28;20744;-74
2023/12/27 04:32:12;;;;;;;8.23;2.53;;;;;;;11.14;100.00;102005.88;2078640;28;20610;-75
2023/12/27 04:33:13;;;;;;;4.77;2.07;;;;;;;11.12;100.00;102022.16;2080260;28;20185;-75
2023/12/27 04:34:13;;;;;;;3.33;1.90;;;;;;;11.09;100.00;102009.06;2080801;28;20303;-74
2023/12/27 04:35:14;;;;;;;4.47;1.93;;;;;;;11.07;100.00;102009.47;2079946;28;20196;-74
2023/12/27 04:36:14;;;;;;;4.87;2.17;;;;;;;11.04;100.00;102001.16;2079060;28;20221;-74
2023/12/27 04:37:15;;;;;;;3.43;1.70;;;;;;;11.04;100.00;102015.84;2079443;28;20198;-74
2023/12/27 04:38:15;;;;;;;5.13;1.93;;;;;;;10.74;100.00;101962.84;2080801;28;20267;-73
2023/12/27 04:39:16;;;;;;;3.33;1.87;;;;;;;10.88;100.00;101985.00;2080747;28;20797;-74